Skip Navigation LinksHome page > Weather > Current weather Skip Navigation Links

Current Weather

Moundou, Chad

For information only: do not use for flight planning or navigation.
Latest weather
Observation time Saturday, September 5, 2015 11:00 AM WAT
Local time Saturday, September 5, 2015 1:13 PM WAT
Flight conditions Visual Meteorological Conditions
Winds
Wind speed calm
Visibility 6.2 mi.
Sky condition
Ceiling unlimited
Cloud layer scattered clouds 4,000 ft.
Temperature 82°F
Dewpoint 73°F
Altimeter 29.97 in.Hg
Derived measurements
Relative humidity 74%
Heat index 88°F
Density altitude 2241 ft.
METAR FTTD 051000Z 00000KT 9999 SCT040 28/23 Q1015

Settings

Location code

InnerDrive.Weather 4.0.5722.1 Release CLR 4.0.30319.34014
Copyright ©2015 Inner Drive Technology. All rights reserved. Portions Copyright ©1986-2015 David Braverman.

Find weather

Site navigation


Skip Navigation Links

Place info

Page info

PayPal - The safer, easier way to pay online!

Return home.

Copyright ©2015 Inner Drive Technology. Purveyors of fine, hand-crafted computer software. Page printed 2015-09-05T12:13:16 UTC.